Time;durP1;ratioP1;P1;durP2;ratioP2;P2;SDS_P1;SDS_P2;PMS_P1;PMS_P2;Temp;Humidity;BMP_temperature;BMP_pressure;BME280_temperature;BME280_humidity;BME280_pressure;Samples;Min_cycle;Max_cycle;Signal;HPM_P1;HPM_P2
2023/09/28 00:01:45;;;;;;;16.23;7.63;;;16.60;94.50;;;;;;5006453;28;20033;-71
2023/09/28 00:04:11;;;;;;;12.55;8.55;;;16.60;94.20;;;;;;5009473;28;20064;-70
2023/09/28 00:06:36;;;;;;;14.23;8.07;;;16.50;94.30;;;;;;5013150;28;20069;-71
2023/09/28 00:09:02;;;;;;;11.52;8.38;;;16.50;94.50;;;;;;5004751;28;20092;-70
2023/09/28 00:11:27;;;;;;;15.18;8.15;;;16.40;94.60;;;;;;5004380;28;20026;-70
2023/09/28 00:13:53;;;;;;;12.65;8.40;;;16.40;94.70;;;;;;5001276;28;20545;-71
2023/09/28 00:16:18;;;;;;;11.68;8.50;;;16.30;94.80;;;;;;5004806;28;20374;-70
2023/09/28 00:18:44;;;;;;;13.02;9.13;;;16.30;94.90;;;;;;5007428;28;20096;-71
2023/09/28 00:21:09;;;;;;;12.82;9.18;;;16.30;94.80;;;;;;5011120;28;20053;-70
2023/09/28 00:23:35;;;;;;;14.30;9.40;;;16.30;95.00;;;;;;5006735;28;20384;-72
2023/09/28 00:26:00;;;;;;;16.10;8.43;;;16.30;95.00;;;;;;5000536;28;20069;-72
2023/09/28 00:28:27;;;;;;;15.02;9.07;;;16.20;95.10;;;;;;5000134;28;20459;-70
2023/09/28 00:30:53;;;;;;;13.10;9.13;;;16.20;95.20;;;;;;5004982;28;20026;-70
2023/09/28 00:33:18;;;;;;;13.90;8.45;;;16.30;95.50;;;;;;5010472;28;20076;-71
2023/09/28 00:35:44;;;;;;;15.60;8.85;;;16.30;95.20;;;;;;5011532;28;20071;-72
2023/09/28 00:38:10;;;;;;;14.13;8.35;;;16.20;95.20;;;;;;5005001;28;20030;-70
2023/09/28 00:40:39;;;;;;;16.17;9.13;;;16.20;95.10;;;;;;5004420;28;20065;-71
2023/09/28 00:43:05;;;;;;;15.55;8.98;;;16.20;95.40;;;;;;5001756;28;20367;-71
2023/09/28 00:45:31;;;;;;;14.02;9.27;;;16.30;95.30;;;;;;5006945;28;20042;-71
2023/09/28 00:48:02;;;;;;;14.15;8.90;;;16.30;95.10;;;;;;5004467;28;20514;-71
2023/09/28 00:50:28;;;;;;;;;;;16.30;95.20;;;;;;5003827;28;20101;-70
2023/09/28 00:52:59;;;;;;;13.23;8.55;;;16.40;94.90;;;;;;4998022;28;19960;-71
2023/09/28 00:55:26;;;;;;;15.02;9.05;;;16.40;94.70;;;;;;5002873;28;20038;-71
2023/09/28 00:57:56;;;;;;;12.88;8.77;;;16.50;94.80;;;;;;5002227;28;20069;-71
2023/09/28 01:00:26;;;;;;;12.90;9.43;;;16.40;94.60;;;;;;5004514;28;20040;-72
2023/09/28 01:02:53;;;;;;;12.45;8.88;;;16.60;94.40;;;;;;5007557;28;20033;-71
2023/09/28 01:05:26;;;;;;;14.93;8.95;;;16.50;94.30;;;;;;5010314;28;20474;-71
2023/09/28 01:07:52;;;;;;;15.73;9.65;;;16.40;94.50;;;;;;5001556;28;20479;-71
2023/09/28 01:10:23;;;;;;;14.05;9.25;;;16.30;94.50;;;;;;5006062;28;20374;-70
2023/09/28 01:12:48;;;;;;;13.80;9.68;;;16.30;94.80;;;;;;5000855;28;20030;-70
2023/09/28 01:15:14;;;;;;;16.38;8.68;;;16.30;94.70;;;;;;5007290;28;20042;-72
2023/09/28 01:17:40;;;;;;;12.48;8.85;;;16.30;94.70;;;;;;5006563;28;20065;-71
2023/09/28 01:20:17;;;;;;;12.40;8.43;;;16.40;94.50;;;;;;5007430;28;20477;-70
2023/09/28 01:22:42;;;;;;;11.48;8.45;;;16.30;94.60;;;;;;5012741;28;20038;-74
2023/09/28 01:25:09;;;;;;;13.90;8.85;;;16.30;94.70;;;;;;5007601;28;20062;-70
2023/09/28 01:27:35;;;;;;;14.75;8.50;;;16.30;94.70;;;;;;4995019;28;20125;-71
2023/09/28 01:30:01;;;;;;;14.60;9.35;;;16.30;94.70;;;;;;4998282;28;20505;-71
2023/09/28 01:32:26;;;;;;;15.02;9.13;;;16.40;94.70;;;;;;5008325;28;20445;-70
2023/09/28 01:34:52;;;;;;;10.93;8.48;;;16.40;94.30;;;;;;5004959;28;20378;-71
2023/09/28 01:37:24;;;;;;;11.32;8.52;;;16.30;94.50;;;;;;5004140;28;20040;-72
2023/09/28 01:39:49;;;;;;;11.60;8.25;;;16.30;94.60;;;;;;4997543;28;20034;-70
2023/09/28 01:42:15;;;;;;;11.10;8.52;;;16.40;94.40;;;;;;5004481;28;20040;-71
2023/09/28 01:44:40;;;;;;;10.48;8.10;;;16.40;94.30;;;;;;5006896;28;20037;-73
2023/09/28 01:47:06;;;;;;;10.48;8.20;;;16.40;94.20;;;;;;5009305;28;20038;-70
2023/09/28 01:49:31;;;;;;;13.90;8.50;;;16.50;94.20;;;;;;5003159;28;20112;-71
2023/09/28 01:51:57;;;;;;;13.63;7.97;;;16.40;94.30;;;;;;5001203;28;20030;-71
2023/09/28 01:54:22;;;;;;;12.15;8.43;;;16.30;94.40;;;;;;5009298;28;20026;-71
2023/09/28 01:56:48;;;;;;;11.77;8.73;;;16.20;94.50;;;;;;5002380;28;20037;-73
2023/09/28 01:59:14;;;;;;;12.70;8.77;;;16.20;94.80;;;;;;5001536;28;20045;-71
2023/09/28 02:01:40;;;;;;;12.23;8.35;;;16.20;94.80;;;;;;5007013;28;20121;-71
2023/09/28 02:04:05;;;;;;;10.95;8.10;;;16.20;94.90;;;;;;5005784;28;20441;-71
2023/09/28 02:06:31;;;;;;;13.00;8.02;;;16.20;94.60;;;;;;5002890;28;20476;-71
2023/09/28 02:08:56;;;;;;;13.15;8.20;;;16.20;94.80;;;;;;4996324;28;20034;-70
2023/09/28 02:11:22;;;;;;;12.00;8.30;;;16.10;94.80;;;;;;5007085;28;20069;-72
2023/09/28 02:13:47;;;;;;;12.73;7.93;;;16.10;95.00;;;;;;5001466;28;20030;-71
2023/09/28 02:16:13;;;;;;;11.18;7.43;;;16.00;95.00;;;;;;5009539;28;20042;-70
2023/09/28 02:18:42;;;;;;;13.73;8.15;;;16.00;95.30;;;;;;5003084;28;20231;-70
2023/09/28 02:21:13;;;;;;;13.15;7.85;;;16.00;95.20;;;;;;5011324;28;20022;-70
2023/09/28 02:23:38;;;;;;;12.38;7.78;;;15.90;95.10;;;;;;5001434;28;20034;-70
2023/09/28 02:26:07;;;;;;;11.32;7.57;;;15.90;95.10;;;;;;5009626;28;20053;-72
2023/09/28 02:28:33;;;;;;;12.10;7.28;;;15.90;95.40;;;;;;4997441;28;20569;-70
2023/09/28 02:31:08;;;;;;;14.45;7.93;;;16.00;95.40;;;;;;5001307;28;20046;-70
2023/09/28 02:33:34;;;;;;;12.18;8.00;;;16.00;95.30;;;;;;4997575;28;20403;-70
2023/09/28 02:36:00;;;;;;;10.40;7.45;;;16.00;95.00;;;;;;5003128;28;20045;-71
2023/09/28 02:38:25;;;;;;;11.93;7.97;;;16.10;95.00;;;;;;4995324;28;20029;-70
2023/09/28 02:40:51;;;;;;;12.20;7.68;;;16.00;94.80;;;;;;4999638;28;20117;-73
2023/09/28 02:43:17;;;;;;;12.05;7.45;;;16.00;95.10;;;;;;4997297;28;20141;-70
2023/09/28 02:45:42;;;;;;;12.70;7.82;;;15.90;95.10;;;;;;4997388;28;20046;-70
2023/09/28 02:48:08;;;;;;;9.30;6.97;;;16.00;95.00;;;;;;5005589;28;20116;-71
2023/09/28 02:50:34;;;;;;;10.38;6.80;;;16.10;94.90;;;;;;4999219;28;20433;-72
2023/09/28 02:53:00;;;;;;;11.95;7.22;;;16.20;94.50;;;;;;5005946;28;20053;-70
2023/09/28 02:55:25;;;;;;;11.52;6.78;;;16.30;94.10;;;;;;4998571;28;20044;-70
2023/09/28 02:57:51;;;;;;;10.77;7.65;;;16.40;94.00;;;;;;4996697;28;20065;-72
2023/09/28 03:02:50;;;;;;;8.60;5.95;;;16.50;93.30;;;;;;5005140;28;20072;-70
2023/09/28 03:05:19;;;;;;;11.88;6.88;;;16.50;93.30;;;;;;5002140;28;20022;-71
2023/09/28 03:07:45;;;;;;;11.15;6.68;;;16.50;93.40;;;;;;5004904;28;20029;-71
2023/09/28 03:10:11;;;;;;;10.95;6.57;;;16.40;93.30;;;;;;4999783;28;20111;-70
2023/09/28 03:12:38;;;;;;;8.73;5.85;;;16.40;93.40;;;;;;5006519;28;20030;-72
2023/09/28 03:15:05;;;;;;;11.48;7.13;;;16.20;93.70;;;;;;4995818;28;20401;-73
2023/09/28 03:17:30;;;;;;;13.20;7.10;;;16.10;93.90;;;;;;5006348;28;20018;-70
2023/09/28 03:19:56;;;;;;;10.23;6.88;;;16.00;94.20;;;;;;5002767;28;20417;-70
2023/09/28 03:22:21;;;;;;;9.90;6.38;;;15.90;94.40;;;;;;5004520;28;20381;-71
2023/09/28 03:24:47;;;;;;;12.13;7.45;;;15.90;94.70;;;;;;5005564;28;20128;-71
2023/09/28 03:27:13;;;;;;;10.65;7.18;;;15.80;94.80;;;;;;4997900;28;20043;-72
2023/09/28 03:29:41;;;;;;;10.93;6.93;;;15.80;95.00;;;;;;4996590;28;20104;-70
2023/09/28 03:32:07;;;;;;;11.82;7.10;;;15.80;95.00;;;;;;5001518;28;20026;-71
2023/09/28 03:34:32;;;;;;;11.38;7.00;;;15.90;94.60;;;;;;5008484;28;20116;-70
2023/09/28 03:36:58;;;;;;;10.35;6.95;;;15.90;94.60;;;;;;4998308;28;20065;-70
2023/09/28 03:39:23;;;;;;;10.13;7.00;;;15.90;94.70;;;;;;5000629;28;20080;-71
2023/09/28 03:41:49;;;;;;;11.95;7.18;;;15.90;94.50;;;;;;4992233;28;20133;-70
2023/09/28 03:44:15;;;;;;;9.90;6.65;;;15.90;94.50;;;;;;5002067;28;20084;-72
2023/09/28 03:46:41;;;;;;;11.70;7.05;;;15.90;94.50;;;;;;5004063;28;20044;-71
2023/09/28 03:49:06;;;;;;;10.25;6.90;;;15.90;94.50;;;;;;4998027;28;20034;-71
2023/09/28 03:51:32;;;;;;;10.38;6.93;;;15.90;94.60;;;;;;5001863;28;20037;-70
2023/09/28 03:53:57;;;;;;;11.18;7.05;;;15.90;94.60;;;;;;5001941;28;20112;-71
2023/09/28 03:56:23;;;;;;;12.25;7.07;;;15.90;94.50;;;;;;5002677;28;20055;-71
2023/09/28 03:58:48;;;;;;;10.00;6.57;;;15.90;94.50;;;;;;5003754;28;20030;-71
2023/09/28 04:01:14;;;;;;;12.57;7.18;;;16.00;94.40;;;;;;5000245;28;20359;-72
2023/09/28 04:03:40;;;;;;;11.18;6.50;;;16.00;94.40;;;;;;4998895;28;20031;-70
2023/09/28 04:06:06;;;;;;;12.15;6.45;;;15.90;94.30;;;;;;4997350;28;20497;-70
2023/09/28 04:08:31;;;;;;;8.35;6.30;;;16.00;94.30;;;;;;5008308;28;20145;-71
2023/09/28 04:10:57;;;;;;;9.30;6.75;;;16.00;94.20;;;;;;4998081;28;20030;-73
2023/09/28 04:13:22;;;;;;;9.80;6.40;;;16.00;94.00;;;;;;5002055;28;20042;-72
2023/09/28 04:15:48;;;;;;;10.25;6.78;;;16.00;94.10;;;;;;4997355;28;20034;-71
2023/09/28 04:18:14;;;;;;;9.73;5.90;;;16.00;93.60;;;;;;5003816;28;20468;-71
2023/09/28 04:20:40;;;;;;;9.05;5.93;;;15.90;93.80;;;;;;5000400;28;20026;-72
2023/09/28 04:23:08;;;;;;;8.00;5.43;;;15.80;94.20;;;;;;4995645;28;20390;-70
2023/09/28 04:25:34;;;;;;;8.70;5.47;;;15.90;94.30;;;;;;5003542;28;20076;-70
2023/09/28 04:27:59;;;;;;;11.95;5.88;;;15.90;93.70;;;;;;5001267;28;20391;-65
2023/09/28 04:30:25;;;;;;;8.70;5.63;;;15.90;93.90;;;;;;5000457;28;20040;-66
2023/09/28 04:32:51;;;;;;;7.07;5.43;;;16.00;93.80;;;;;;5008369;28;20076;-66
2023/09/28 04:35:17;;;;;;;7.00;4.97;;;16.00;93.70;;;;;;5006496;28;20037;-65
2023/09/28 04:37:43;;;;;;;7.15;5.22;;;16.10;93.60;;;;;;5010591;28;20087;-65
2023/09/28 04:40:10;;;;;;;7.65;4.90;;;16.20;92.60;;;;;;4999398;28;20034;-66
2023/09/28 04:42:36;;;;;;;8.38;4.88;;;16.40;91.90;;;;;;4998480;28;20026;-67
2023/09/28 04:45:02;;;;;;;6.63;4.45;;;16.50;91.50;;;;;;5003708;28;20494;-66
2023/09/28 04:47:28;;;;;;;7.25;4.90;;;16.50;91.60;;;;;;5003416;28;20065;-66
2023/09/28 04:49:55;;;;;;;8.48;4.50;;;16.50;91.70;;;;;;5002943;28;20643;-65
2023/09/28 04:52:22;;;;;;;8.40;4.80;;;16.50;91.70;;;;;;5003570;28;20037;-67
2023/09/28 04:54:49;;;;;;;6.32;4.47;;;16.40;91.80;;;;;;5001016;28;20550;-65
2023/09/28 04:57:14;;;;;;;8.50;4.82;;;16.40;92.00;;;;;;4999040;28;20034;-66
2023/09/28 04:59:40;;;;;;;7.53;5.05;;;16.40;92.00;;;;;;5003523;28;20036;-66
2023/09/28 05:02:06;;;;;;;9.18;5.15;;;16.40;92.00;;;;;;5000394;28;20030;-66
2023/09/28 05:04:31;;;;;;;6.30;4.75;;;16.30;91.90;;;;;;5002966;28;20034;-65
2023/09/28 05:06:59;;;;;;;7.57;4.57;;;16.30;92.00;;;;;;5009080;28;20030;-65
2023/09/28 05:09:26;;;;;;;7.93;4.90;;;16.30;92.10;;;;;;5010809;28;20084;-65
2023/09/28 05:11:51;;;;;;;8.52;4.43;;;16.30;92.00;;;;;;4994941;28;20089;-66
2023/09/28 05:14:17;;;;;;;6.72;4.50;;;16.40;91.90;;;;;;5003349;28;20426;-65
2023/09/28 05:16:42;;;;;;;6.28;4.25;;;16.30;92.00;;;;;;5001051;28;20069;-65
2023/09/28 05:19:08;;;;;;;10.52;5.47;;;16.30;91.90;;;;;;5005612;28;20771;-65
2023/09/28 05:21:33;;;;;;;8.73;5.05;;;16.40;91.60;;;;;;5006268;28;20088;-65
2023/09/28 05:23:59;;;;;;;7.28;4.88;;;16.40;91.70;;;;;;5003682;28;20034;-66
2023/09/28 05:26:24;;;;;;;8.95;4.82;;;16.40;91.60;;;;;;5001783;28;20050;-66
2023/09/28 05:28:50;;;;;;;7.35;4.55;;;16.40;91.70;;;;;;4996504;28;20041;-65
2023/09/28 05:31:16;;;;;;;10.43;5.07;;;16.40;91.60;;;;;;5006630;28;20084;-65
2023/09/28 05:33:41;;;;;;;7.25;4.95;;;16.40;91.60;;;;;;5003948;28;20026;-67
2023/09/28 05:36:07;;;;;;;9.13;5.20;;;16.40;91.50;;;;;;5000401;28;20056;-65
2023/09/28 05:38:32;;;;;;;8.10;5.18;;;16.40;91.70;;;;;;5007372;28;20034;-65
2023/09/28 05:40:58;;;;;;;8.27;4.80;;;16.40;91.50;;;;;;5001614;28;20030;-65
2023/09/28 05:43:23;;;;;;;8.15;4.85;;;16.40;91.40;;;;;;5009747;28;20502;-66
2023/09/28 05:45:49;;;;;;;8.80;4.40;;;16.40;91.60;;;;;;5001804;28;20046;-66
2023/09/28 05:48:14;;;;;;;7.90;4.82;;;16.40;91.50;;;;;;5003968;28;20117;-66
2023/09/28 05:50:40;;;;;;;7.53;4.45;;;16.50;91.40;;;;;;5009648;28;20034;-65
2023/09/28 05:53:06;;;;;;;7.53;4.90;;;16.40;91.10;;;;;;5010989;28;20547;-65
2023/09/28 05:55:31;;;;;;;7.15;4.78;;;16.50;91.20;;;;;;5022803;28;20117;-66
2023/09/28 05:57:57;;;;;;;9.23;5.03;;;16.50;91.10;;;;;;5003213;28;20034;-65
2023/09/28 06:00:23;;;;;;;6.85;4.70;;;16.50;91.30;;;;;;5001526;28;20041;-66
2023/09/28 06:02:48;;;;;;;6.30;4.45;;;16.50;91.20;;;;;;5005565;28;20038;-65
2023/09/28 06:05:14;;;;;;;8.88;4.85;;;16.60;90.70;;;;;;5004905;28;20460;-67
2023/09/28 06:07:39;;;;;;;7.38;4.30;;;16.60;90.70;;;;;;5000953;28;20601;-65
2023/09/28 06:10:08;;;;;;;6.93;4.32;;;16.60;90.70;;;;;;4998472;28;20493;-65
2023/09/28 06:12:34;;;;;;;6.90;4.78;;;16.70;90.50;;;;;;5008467;28;20030;-66
2023/09/28 06:14:59;;;;;;;9.52;4.57;;;16.70;90.50;;;;;;5004799;28;20034;-66
2023/09/28 06:17:24;;;;;;;7.78;3.95;;;16.60;90.60;;;;;;5010859;28;20061;-65
2023/09/28 06:19:50;;;;;;;8.27;4.10;;;16.60;91.00;;;;;;5005873;28;20045;-66
2023/09/28 06:22:15;;;;;;;7.00;4.15;;;16.60;90.80;;;;;;5009753;28;20029;-65
2023/09/28 06:24:41;;;;;;;7.15;4.40;;;16.60;90.90;;;;;;5010820;28;20107;-67
2023/09/28 06:27:06;;;;;;;7.22;3.90;;;16.60;90.90;;;;;;5005847;28;20042;-65
2023/09/28 06:29:32;;;;;;;10.82;4.22;;;16.60;91.00;;;;;;5003522;28;20018;-66
2023/09/28 06:31:58;;;;;;;6.20;4.22;;;16.50;91.10;;;;;;5001437;28;20029;-65
2023/09/28 06:34:24;;;;;;;6.57;4.10;;;16.50;91.10;;;;;;4996034;28;20479;-66
2023/09/28 06:36:50;;;;;;;5.85;3.97;;;16.50;91.10;;;;;;5002835;28;20029;-65
2023/09/28 06:39:15;;;;;;;9.43;4.50;;;16.50;91.20;;;;;;5009605;28;20033;-65
2023/09/28 06:41:41;;;;;;;7.82;4.28;;;16.50;91.00;;;;;;5003165;28;22456;-65
2023/09/28 06:44:08;;;;;;;8.55;4.53;;;16.50;91.00;;;;;;5004888;28;20109;-65
2023/09/28 06:46:34;;;;;;;8.85;4.70;;;16.60;90.80;;;;;;5003859;28;20034;-66
2023/09/28 06:48:59;;;;;;;10.10;4.50;;;16.60;90.80;;;;;;5005990;28;20045;-65
2023/09/28 06:51:26;;;;;;;6.20;4.38;;;16.60;90.50;;;;;;4995926;28;20379;-66
2023/09/28 06:53:51;;;;;;;7.85;4.60;;;16.80;90.40;;;;;;5001892;28;20492;-66
2023/09/28 06:56:17;;;;;;;5.70;4.13;;;16.80;90.10;;;;;;5004506;28;20121;-67
2023/09/28 06:58:42;;;;;;;8.43;4.88;;;16.90;90.50;;;;;;4998359;28;20490;-66
2023/09/28 07:01:08;;;;;;;6.35;4.25;;;16.90;90.60;;;;;;5005433;28;20510;-65
2023/09/28 07:03:33;;;;;;;6.93;4.50;;;17.00;90.60;;;;;;4999264;28;20037;-67
2023/09/28 07:06:00;;;;;;;7.60;4.40;;;17.00;90.30;;;;;;5008273;28;20367;-66
2023/09/28 07:08:26;;;;;;;8.45;4.30;;;17.00;90.30;;;;;;5011565;28;20033;-65
2023/09/28 07:10:51;;;;;;;6.82;4.70;;;16.90;90.60;;;;;;5011340;28;20033;-66
2023/09/28 07:13:17;;;;;;;6.85;4.00;;;16.90;90.70;;;;;;4999739;28;20026;-66
2023/09/28 07:15:42;;;;;;;5.95;4.07;;;16.90;90.70;;;;;;5007729;28;20530;-65
2023/09/28 07:18:08;;;;;;;5.53;4.07;;;16.90;90.30;;;;;;5007777;28;20037;-65
2023/09/28 07:20:35;;;;;;;7.68;4.25;;;16.90;90.90;;;;;;5007018;28;20045;-66
2023/09/28 07:23:01;;;;;;;7.20;4.03;;;16.90;90.50;;;;;;5004770;28;20475;-66
2023/09/28 07:25:26;;;;;;;7.25;4.57;;;16.90;90.90;;;;;;5010835;28;20060;-65
2023/09/28 07:27:54;;;;;;;7.32;4.45;;;16.90;90.60;;;;;;5003968;28;20489;-66
2023/09/28 07:30:20;;;;;;;5.53;3.92;;;16.90;90.80;;;;;;5006948;28;20065;-66
2023/09/28 07:32:47;;;;;;;8.23;4.22;;;16.90;90.80;;;;;;4999851;28;20073;-68
2023/09/28 07:35:13;;;;;;;6.28;3.85;;;16.90;91.00;;;;;;5005643;28;20073;-66
2023/09/28 07:37:40;;;;;;;6.18;3.92;;;16.90;91.00;;;;;;5001260;28;20093;-67
2023/09/28 07:40:07;;;;;;;6.00;4.40;;;16.90;91.30;;;;;;5005510;28;20044;-67
2023/09/28 07:42:32;;;;;;;7.40;4.45;;;17.00;91.20;;;;;;5008797;28;20475;-66
2023/09/28 07:44:58;;;;;;;6.45;4.47;;;17.00;91.10;;;;;;5000952;28;20034;-67
2023/09/28 07:47:24;;;;;;;9.27;4.20;;;17.00;90.90;;;;;;5001811;28;20033;-66
2023/09/28 07:49:49;;;;;;;8.65;5.32;;;17.10;90.80;;;;;;5008676;28;20029;-66
2023/09/28 07:52:15;;;;;;;7.90;4.28;;;17.20;90.90;;;;;;5010775;28;20049;-66
2023/09/28 07:54:40;;;;;;;5.82;3.85;;;17.30;91.00;;;;;;5009271;28;20425;-66
2023/09/28 07:57:09;;;;;;;6.40;4.55;;;17.50;90.80;;;;;;5002086;28;20026;-66
2023/09/28 07:59:35;;;;;;;8.75;4.57;;;17.70;90.00;;;;;;5005588;28;20034;-66
2023/09/28 08:02:01;;;;;;;11.98;4.47;;;17.90;89.30;;;;;;5009714;28;20036;-67
2023/09/28 08:04:27;;;;;;;6.50;4.25;;;18.00;89.40;;;;;;5011857;28;20079;-67
2023/09/28 08:06:54;;;;;;;6.95;4.20;;;18.10;88.50;;;;;;5012097;28;20038;-66
2023/09/28 08:09:20;;;;;;;6.97;4.50;;;18.30;87.80;;;;;;5006474;28;20030;-66
2023/09/28 08:11:48;;;;;;;7.07;4.35;;;18.30;88.10;;;;;;5013616;28;20372;-66
2023/09/28 08:14:15;;;;;;;9.18;4.47;;;18.50;87.60;;;;;;5007304;28;20025;-68
2023/09/28 08:16:42;;;;;;;7.30;3.90;;;18.60;87.90;;;;;;5010266;28;20380;-66
2023/09/28 08:19:07;;;;;;;6.97;4.18;;;18.80;87.20;;;;;;5014204;28;20244;-66
2023/09/28 08:21:34;;;;;;;8.95;3.83;;;18.90;87.00;;;;;;5010764;28;20108;-66
2023/09/28 08:23:59;;;;;;;6.70;4.35;;;19.00;86.70;;;;;;5013624;28;20026;-66
2023/09/28 08:26:25;;;;;;;5.80;3.75;;;19.20;85.40;;;;;;5004712;28;20049;-66
2023/09/28 08:28:50;;;;;;;9.57;4.20;;;19.30;84.90;;;;;;5002869;28;20026;-66
2023/09/28 08:31:16;;;;;;;7.32;3.95;;;19.40;84.70;;;;;;5004696;28;20396;-65
2023/09/28 08:33:42;;;;;;;7.38;4.35;;;19.40;84.60;;;;;;5010848;28;20036;-66
2023/09/28 08:36:13;;;;;;;7.88;3.50;;;19.60;84.70;;;;;;5008203;28;20475;-67
2023/09/28 08:38:38;;;;;;;7.68;4.00;;;19.80;84.40;;;;;;5008828;28;20434;-66
2023/09/28 08:41:08;;;;;;;7.32;4.28;;;19.90;84.60;;;;;;5014087;28;20038;-67
2023/09/28 08:43:42;;;;;;;6.25;3.72;;;19.90;83.00;;;;;;5008691;28;20037;-67
2023/09/28 08:46:10;;;;;;;7.18;3.70;;;20.10;83.60;;;;;;5008265;28;20037;-67
2023/09/28 08:48:42;;;;;;;6.00;3.50;;;20.10;83.10;;;;;;5007893;28;20029;-67
2023/09/28 08:51:10;;;;;;;6.57;3.75;;;20.30;82.80;;;;;;5013914;28;20104;-65
2023/09/28 08:53:40;;;;;;;6.35;3.42;;;20.40;82.90;;;;;;5009568;28;20132;-66
2023/09/28 08:56:07;;;;;;;6.18;3.80;;;20.50;82.30;;;;;;5002816;28;20689;-66
2023/09/28 08:58:37;;;;;;;8.98;3.20;;;20.40;81.40;;;;;;5005226;28;20026;-67
2023/09/28 09:01:03;;;;;;;5.40;3.30;;;20.60;82.50;;;;;;5003781;28;20030;-66
2023/09/28 09:03:32;;;;;;;9.68;3.60;;;20.80;82.40;;;;;;5002517;28;20022;-65
2023/09/28 09:05:58;;;;;;;6.85;3.28;;;21.00;81.20;;;;;;5006333;28;20034;-65
2023/09/28 09:08:26;;;;;;;5.07;3.13;;;21.00;80.80;;;;;;5004612;28;20101;-67
2023/09/28 09:10:52;;;;;;;4.78;2.72;;;21.00;80.40;;;;;;5010292;28;20479;-65
2023/09/28 09:13:19;;;;;;;5.65;2.88;;;21.30;80.60;;;;;;5009026;28;20490;-66
2023/09/28 09:15:45;;;;;;;5.47;3.20;;;21.40;79.90;;;;;;5005615;28;20034;-67
2023/09/28 09:18:20;;;;;;;4.63;2.97;;;21.50;79.30;;;;;;5000246;28;20302;-66
2023/09/28 09:20:46;;;;;;;5.80;2.97;;;21.60;79.70;;;;;;5001664;28;20106;-67
2023/09/28 09:23:13;;;;;;;5.40;2.78;;;21.60;77.40;;;;;;5011205;28;20116;-67
2023/09/28 09:25:40;;;;;;;7.15;2.90;;;21.50;78.00;;;;;;5004757;28;20471;-67
2023/09/28 09:28:06;;;;;;;6.57;2.50;;;21.50;77.40;;;;;;5007712;28;20033;-67
2023/09/28 09:30:35;;;;;;;5.55;2.90;;;21.60;77.30;;;;;;5005548;28;20034;-66
2023/09/28 09:33:01;;;;;;;6.47;3.17;;;21.60;77.20;;;;;;5007230;28;20394;-67
2023/09/28 09:35:28;;;;;;;8.00;2.92;;;21.60;77.60;;;;;;5010173;28;20038;-66
2023/09/28 09:37:55;;;;;;;7.82;3.17;;;21.70;78.40;;;;;;5007902;28;20474;-66
2023/09/28 09:40:21;;;;;;;5.35;3.15;;;22.00;77.90;;;;;;5008101;28;20038;-66
2023/09/28 09:42:46;;;;;;;8.75;3.10;;;21.80;77.00;;;;;;5001284;28;20128;-66
2023/09/28 09:45:12;;;;;;;9.32;3.42;;;22.00;77.20;;;;;;4996962;28;20030;-66
2023/09/28 09:47:47;;;;;;;7.30;3.00;;;22.00;77.20;;;;;;5004246;28;20056;-66
2023/09/28 09:50:14;;;;;;;5.80;2.95;;;22.00;76.80;;;;;;5004791;28;20046;-66
2023/09/28 09:52:42;;;;;;;7.82;2.72;;;22.00;75.90;;;;;;5002912;28;20034;-66
2023/09/28 09:55:08;;;;;;;7.53;2.65;;;22.10;76.10;;;;;;5010168;28;20084;-66
2023/09/28 09:57:37;;;;;;;7.50;2.70;;;22.00;75.50;;;;;;5008972;28;20044;-68
2023/09/28 10:00:07;;;;;;;8.27;3.13;;;22.10;75.70;;;;;;4997750;28;20030;-67
2023/09/28 10:02:37;;;;;;;5.88;2.60;;;22.10;75.30;;;;;;5001978;28;20548;-66
2023/09/28 10:05:08;;;;;;;9.27;3.22;;;22.20;76.70;;;;;;5009833;28;20087;-66
2023/09/28 10:07:37;;;;;;;4.65;2.35;;;22.20;74.90;;;;;;5003743;28;20053;-67
2023/09/28 10:10:03;;;;;;;7.60;2.90;;;22.50;76.10;;;;;;5000724;28;20119;-66
2023/09/28 10:12:30;;;;;;;5.85;2.45;;;22.50;75.40;;;;;;5003257;28;20356;-65
2023/09/28 10:14:58;;;;;;;4.18;2.30;;;22.60;74.20;;;;;;4999860;28;20446;-66
2023/09/28 10:17:26;;;;;;;5.20;2.28;;;22.70;74.60;;;;;;5004138;28;20534;-67
2023/09/28 10:19:57;;;;;;;4.43;2.20;;;22.50;73.00;;;;;;5008910;28;20503;-66
2023/09/28 10:22:23;;;;;;;5.03;2.47;;;22.50;73.80;;;;;;5008476;28;20410;-67
2023/09/28 10:24:48;;;;;;;5.80;2.17;;;22.40;73.80;;;;;;5007781;28;20054;-70
2023/09/28 10:27:14;;;;;;;5.65;2.35;;;22.60;74.10;;;;;;5006559;28;20351;-66
2023/09/28 10:29:40;;;;;;;6.55;2.30;;;22.60;72.60;;;;;;5003197;28;20026;-67
2023/09/28 10:32:27;;;;;;;6.85;2.42;;;22.50;72.70;;;;;;4999375;28;20032;-66
2023/09/28 10:35:23;;;;;;;7.28;2.45;;;22.60;73.20;;;;;;5003721;28;20030;-66
2023/09/28 10:38:20;;;;;;;6.53;2.63;;;22.60;72.40;;;;;;5003744;28;20022;-66
2023/09/28 10:41:05;;;;;;;6.32;2.45;;;22.70;72.80;;;;;;5007518;28;20437;-66
2023/09/28 10:43:33;;;;;;;6.35;2.42;;;23.00;72.30;;;;;;5003435;28;20033;-67
2023/09/28 10:46:03;;;;;;;4.57;2.63;;;23.40;73.00;;;;;;5003004;28;20633;-66
2023/09/28 10:48:41;;;;;;;7.87;2.93;;;23.30;71.90;;;;;;5004785;28;20040;-67
2023/09/28 10:51:11;;;;;;;8.43;2.47;;;23.30;71.10;;;;;;5005016;28;20378;-68
2023/09/28 10:53:37;;;;;;;6.05;1.92;;;23.50;71.20;;;;;;5003165;28;20040;-67
2023/09/28 10:56:05;;;;;;;5.80;2.50;;;23.80;71.00;;;;;;5005030;28;20121;-69
2023/09/28 10:58:32;;;;;;;7.50;2.20;;;23.60;72.10;;;;;;5001066;28;20034;-67
2023/09/28 11:01:04;;;;;;;4.45;1.67;;;24.00;70.00;;;;;;5004123;28;20040;-67
2023/09/28 11:03:33;;;;;;;7.82;2.28;;;23.90;69.50;;;;;;5000512;28;21666;-70
2023/09/28 11:06:03;;;;;;;4.70;2.00;;;24.00;69.80;;;;;;5009463;28;20030;-68
2023/09/28 11:08:30;;;;;;;4.53;2.15;;;24.30;70.00;;;;;;5013189;28;20636;-67
2023/09/28 11:11:01;;;;;;;10.32;2.28;;;24.40;69.60;;;;;;5006204;28;20022;-67
2023/09/28 11:13:27;;;;;;;4.32;2.17;;;24.30;70.30;;;;;;5003404;28;20050;-67
2023/09/28 11:15:53;;;;;;;5.60;1.67;;;24.50;69.10;;;;;;5006331;28;20022;-67
2023/09/28 11:18:19;;;;;;;5.22;2.28;;;24.40;67.70;;;;;;5003348;28;20120;-69
2023/09/28 11:20:45;;;;;;;5.80;1.83;;;24.00;68.30;;;;;;4996674;28;20034;-66
2023/09/28 11:23:11;;;;;;;5.53;2.40;;;23.70;69.00;;;;;;5006587;28;20525;-67
2023/09/28 11:25:38;;;;;;;8.55;2.58;;;23.40;70.70;;;;;;5002472;28;20057;-66
2023/09/28 11:28:05;;;;;;;5.95;2.08;;;23.90;69.40;;;;;;5004448;28;20054;-69
2023/09/28 11:30:31;;;;;;;6.68;2.15;;;24.00;69.10;;;;;;5006411;28;20405;-67
2023/09/28 11:32:57;;;;;;;4.90;2.22;;;23.80;69.70;;;;;;5002854;28;20022;-66
2023/09/28 11:35:24;;;;;;;5.88;2.17;;;23.60;70.20;;;;;;4996194;28;20018;-66
2023/09/28 11:37:51;;;;;;;6.93;2.35;;;23.70;71.00;;;;;;5000197;28;20026;-66
2023/09/28 11:40:17;;;;;;;6.53;2.22;;;24.00;69.50;;;;;;5000231;28;20040;-68
2023/09/28 11:42:43;;;;;;;7.43;2.15;;;24.30;69.30;;;;;;5002249;28;20525;-68
2023/09/28 11:45:12;;;;;;;8.10;2.50;;;24.30;68.90;;;;;;5006671;28;20053;-68
2023/09/28 11:47:37;;;;;;;4.22;2.03;;;24.10;68.60;;;;;;5002534;28;20112;-67
2023/09/28 11:50:09;;;;;;;6.80;2.13;;;23.70;70.10;;;;;;5006732;28;20137;-69
2023/09/28 11:52:37;;;;;;;6.28;1.92;;;23.40;69.90;;;;;;5007185;28;20031;-67
2023/09/28 11:55:05;;;;;;;3.78;2.05;;;23.40;70.80;;;;;;5003625;28;20034;-67
2023/09/28 11:57:35;;;;;;;6.50;2.10;;;23.30;70.30;;;;;;5006846;28;20034;-66
2023/09/28 12:00:01;;;;;;;5.95;2.15;;;23.90;69.60;;;;;;5004607;28;20121;-67
2023/09/28 12:02:28;;;;;;;6.30;2.13;;;23.70;70.00;;;;;;4998240;28;20441;-67
2023/09/28 12:04:53;;;;;;;5.55;2.13;;;23.60;70.40;;;;;;5000515;28;20026;-68
2023/09/28 12:07:19;;;;;;;5.85;2.10;;;23.40;70.60;;;;;;5002872;28;20093;-68
2023/09/28 12:09:45;;;;;;;5.53;2.25;;;23.50;70.70;;;;;;5003909;28;20037;-66
2023/09/28 12:12:11;;;;;;;5.47;2.30;;;23.60;69.40;;;;;;5002482;28;20049;-66
2023/09/28 12:14:37;;;;;;;10.07;2.70;;;23.80;69.20;;;;;;5007304;28;20025;-66
2023/09/28 12:17:03;;;;;;;6.30;2.47;;;23.90;69.20;;;;;;4996400;28;20387;-67
2023/09/28 12:19:31;;;;;;;4.60;2.30;;;23.90;69.50;;;;;;5003814;28;20118;-66
2023/09/28 12:21:58;;;;;;;4.65;2.10;;;24.20;68.70;;;;;;5000022;28;20080;-67
2023/09/28 12:24:24;;;;;;;5.63;2.17;;;24.90;67.10;;;;;;5003350;28;20026;-67
2023/09/28 12:26:49;;;;;;;4.32;2.22;;;24.90;66.70;;;;;;4997778;28;20056;-66
2023/09/28 12:29:17;;;;;;;6.57;2.30;;;24.80;66.80;;;;;;4999669;28;20125;-68
2023/09/28 12:31:44;;;;;;;5.28;2.35;;;24.70;67.20;;;;;;4995401;28;20105;-69
2023/09/28 12:34:09;;;;;;;4.53;2.38;;;24.20;69.30;;;;;;5000303;28;20483;-67
2023/09/28 12:36:35;;;;;;;5.13;2.17;;;24.30;69.50;;;;;;5000807;28;20045;-65
2023/09/28 12:39:01;;;;;;;4.95;2.13;;;24.40;68.40;;;;;;4994272;28;20049;-67
2023/09/28 12:41:26;;;;;;;5.28;1.85;;;24.50;68.80;;;;;;5006934;28;20037;-67
2023/09/28 12:43:52;;;;;;;5.07;2.17;;;25.10;67.50;;;;;;4999657;28;20037;-66